OJAM/ADJ METAR and TAF weather

Enter ICAO airport designator
Station Type Date Time Source
OJAM METAR 2019/07/17 13:00 UTC NOAA

OJAM 171300Z 27018KT 4000 BLDU NSC 36/08 Q1009 NOSIG


Station Type Date Time Source
OJAM Decoded METAR 2019/07/17 13:00 UTC NOAA

Amman Airport, Jordan (OJAM) 31-59N 035-59E 768M
Jul 17, 2019 - 09:00 AM EDT / 2019.07.17 1300 UTC
Wind: from the W (270 degrees) at 21 MPH (18 KT):0
Visibility: 2 mile(s):0
Weather: blowing widespread dust
Temperature: 96 F (36 C)
Dew Point: 46 F (8 C)
Relative Humidity: 18%
Pressure (altimeter): 29.80 in. Hg (1009 hPa)
ob: OJAM 171300Z 27018KT 4000 BLDU NSC 36/08 Q1009 NOSIG
cycle: 13

Station Type Date Time Source
OJAM TAF 2019/07/17 12:15 UTC NOAA

TAF OJAM 171100Z 1712/1818 25012KT 4000 HZ NSC PROB40
TEMPO 1712/1718 26018KT 3000 BLDU

Example: see airport list